TUI21W LEPA-EDDL
Flight info
| Callsign | TUI21W |
|---|---|
| Flight time | 1h 53m |
| Altitude | 38000 |
| Route | MEROS DCT LAPIT DCT CHELY DCT LUMAS DCT NEVIX DCT ODIXU DCT MAXIR DCT LUSOL DCT BODRU DCT OKTET DCT IRMAR DCT KINES DCT VANAS/N0435F360 DCT MOBLO DCT UBIMA DCT GILIR DCT PENDU DCT IXILU DCT GIVOR/N0413F320 DCT SORAL DCT IBERA DCT DIK/N0408F310 N853 ARCKY T853 NVO T857 BIKMU BIKMU1A |
| Aircraft | B738/M-SDE2E3FGHIRWXY/LB1 |
Departure
| Time | 2026-05-05 17:04 |
|---|---|
| Airport | Palma de Mallorca Airport (LEPA) |
Arrival
| Time | 2026-05-05 18:57 |
|---|---|
| Airport | Düsseldorf Airport (EDDL) |
| Time | Latitude | Longitude | Altitude | Speed | Heading |
|---|---|---|---|---|---|
| 2026-05-05 16:16 | 39.54943 | 2.73765 | 35 ft | 0 kts | 238° |
| 2026-05-05 16:52 | 39.54946 | 2.73771 | 35 ft | 2 kts | 238° |
| 2026-05-05 16:53 | 39.54953 | 2.73787 | 35 ft | 2 kts | 238° |
| 2026-05-05 16:53 | 39.54961 | 2.73804 | 35 ft | 2 kts | 238° |
| 2026-05-05 16:53 | 39.54969 | 2.73821 | 35 ft | 2 kts | 238° |
| 2026-05-05 16:53 | 39.54977 | 2.73837 | 35 ft | 2 kts | 238° |
| 2026-05-05 16:54 | 39.54985 | 2.73854 | 35 ft | 2 kts | 243° |
| 2026-05-05 16:54 | 39.54988 | 2.73872 | 35 ft | 2 kts | 278° |
| 2026-05-05 16:54 | 39.54983 | 2.73891 | 35 ft | 2 kts | 306° |
| 2026-05-05 16:54 | 39.54977 | 2.73899 | 35 ft | 1 kts | 322° |
| 2026-05-05 16:55 | 39.54972 | 2.73903 | 35 ft | 0 kts | 324° |
| 2026-05-05 16:57 | 39.54976 | 2.73899 | 35 ft | 4 kts | 324° |
| 2026-05-05 16:57 | 39.55032 | 2.73851 | 35 ft | 11 kts | 328° |
| 2026-05-05 16:57 | 39.55092 | 2.73804 | 35 ft | 8 kts | 329° |
| 2026-05-05 16:57 | 39.55145 | 2.73774 | 35 ft | 7 kts | 5° |
| 2026-05-05 16:58 | 39.55179 | 2.73812 | 35 ft | 5 kts | 47° |
| 2026-05-05 16:58 | 39.55220 | 2.73815 | 35 ft | 6 kts | 335° |
| 2026-05-05 16:58 | 39.55271 | 2.73770 | 35 ft | 14 kts | 328° |
| 2026-05-05 16:58 | 39.55389 | 2.73676 | 35 ft | 21 kts | 329° |
| 2026-05-05 16:59 | 39.55509 | 2.73581 | 35 ft | 18 kts | 329° |
| 2026-05-05 16:59 | 39.55608 | 2.73507 | 35 ft | 11 kts | 338° |
| 2026-05-05 16:59 | 39.55667 | 2.73532 | 35 ft | 9 kts | 55° |
| 2026-05-05 16:59 | 39.55705 | 2.73610 | 35 ft | 13 kts | 59° |
| 2026-05-05 17:00 | 39.55770 | 2.73749 | 35 ft | 19 kts | 59° |
| 2026-05-05 17:00 | 39.55836 | 2.73889 | 35 ft | 17 kts | 58° |
| 2026-05-05 17:00 | 39.55895 | 2.74012 | 35 ft | 14 kts | 58° |
| 2026-05-05 17:00 | 39.55945 | 2.74117 | 35 ft | 12 kts | 58° |
| 2026-05-05 17:01 | 39.55987 | 2.74206 | 35 ft | 10 kts | 59° |
| 2026-05-05 17:01 | 39.56022 | 2.74281 | 35 ft | 8 kts | 59° |
| 2026-05-05 17:01 | 39.56050 | 2.74341 | 35 ft | 6 kts | 58° |
| 2026-05-05 17:01 | 39.56072 | 2.74387 | 35 ft | 5 kts | 58° |
| 2026-05-05 17:02 | 39.56109 | 2.74441 | 35 ft | 9 kts | 29° |
| 2026-05-05 17:02 | 39.56168 | 2.74440 | 35 ft | 8 kts | 337° |
| 2026-05-05 17:02 | 39.56227 | 2.74391 | 35 ft | 10 kts | 315° |
| 2026-05-05 17:02 | 39.56243 | 2.74312 | 35 ft | 8 kts | 255° |
| 2026-05-05 17:03 | 39.56192 | 2.74193 | 35 ft | 33 kts | 238° |
| 2026-05-05 17:03 | 39.55943 | 2.73667 | 35 ft | 100 kts | 237° |
| 2026-05-05 17:03 | 39.55477 | 2.72682 | 36 ft | 154 kts | 238° |
| 2026-05-05 17:03 | 39.54895 | 2.71450 | 557 ft | 160 kts | 237° |
| 2026-05-05 17:04 | 39.54314 | 2.70241 | 1239 ft | 161 kts | 238° |
| 2026-05-05 17:04 | 39.53728 | 2.69033 | 1877 ft | 160 kts | 238° |
| 2026-05-05 17:04 | 39.53118 | 2.67792 | 2306 ft | 168 kts | 237° |
| 2026-05-05 17:04 | 39.52468 | 2.66556 | 2833 ft | 169 kts | 237° |
| 2026-05-05 17:05 | 39.51758 | 2.65224 | 3002 ft | 194 kts | 238° |
| 2026-05-05 17:05 | 39.50989 | 2.63686 | 3406 ft | 210 kts | 239° |
| 2026-05-05 17:05 | 39.50200 | 2.62071 | 4022 ft | 216 kts | 238° |
| 2026-05-05 17:05 | 39.49270 | 2.60524 | 4448 ft | 234 kts | 221° |
| 2026-05-05 17:06 | 39.47787 | 2.59415 | 4770 ft | 256 kts | 207° |
| 2026-05-05 17:06 | 39.46177 | 2.58451 | 5516 ft | 257 kts | 208° |
| 2026-05-05 17:06 | 39.44523 | 2.57624 | 6221 ft | 265 kts | 193° |
| 2026-05-05 17:06 | 39.42669 | 2.57621 | 6904 ft | 274 kts | 175° |
| 2026-05-05 17:07 | 39.40827 | 2.58205 | 7652 ft | 280 kts | 161° |
| 2026-05-05 17:07 | 39.39206 | 2.59662 | 8388 ft | 291 kts | 135° |
| 2026-05-05 17:07 | 39.38174 | 2.61897 | 9132 ft | 300 kts | 113° |
| 2026-05-05 17:07 | 39.37853 | 2.64605 | 9828 ft | 310 kts | 90° |
| 2026-05-05 17:08 | 39.38229 | 2.67379 | 10270 ft | 328 kts | 71° |
| 2026-05-05 17:08 | 39.39433 | 2.69998 | 10496 ft | 347 kts | 50° |
| 2026-05-05 17:08 | 39.41019 | 2.72361 | 11088 ft | 355 kts | 48° |
| 2026-05-05 17:08 | 39.42653 | 2.74740 | 11711 ft | 361 kts | 48° |
| 2026-05-05 17:09 | 39.44337 | 2.77204 | 12332 ft | 368 kts | 48° |
| 2026-05-05 17:09 | 39.46021 | 2.79673 | 12849 ft | 372 kts | 48° |
| 2026-05-05 17:09 | 39.47749 | 2.82213 | 13191 ft | 376 kts | 48° |
| 2026-05-05 17:09 | 39.49474 | 2.84753 | 13435 ft | 375 kts | 48° |
| 2026-05-05 17:10 | 39.51184 | 2.87274 | 14070 ft | 379 kts | 48° |
| 2026-05-05 17:10 | 39.52939 | 2.89868 | 14726 ft | 385 kts | 47° |
| 2026-05-05 17:10 | 39.54699 | 2.92472 | 15419 ft | 388 kts | 47° |
| 2026-05-05 17:10 | 39.56481 | 2.95110 | 16088 ft | 393 kts | 47° |
| 2026-05-05 17:11 | 39.58281 | 2.97777 | 16736 ft | 397 kts | 47° |
| 2026-05-05 17:11 | 39.60088 | 3.00454 | 17367 ft | 401 kts | 47° |
| 2026-05-05 17:11 | 39.61927 | 3.03182 | 17989 ft | 405 kts | 47° |
| 2026-05-05 17:11 | 39.63791 | 3.05947 | 18589 ft | 410 kts | 46° |
| 2026-05-05 17:12 | 39.65681 | 3.08752 | 19160 ft | 415 kts | 46° |
| 2026-05-05 17:12 | 39.67578 | 3.11571 | 19720 ft | 419 kts | 46° |
| 2026-05-05 17:12 | 39.69493 | 3.14420 | 20267 ft | 424 kts | 46° |
| 2026-05-05 17:12 | 39.71439 | 3.17319 | 20803 ft | 429 kts | 46° |
| 2026-05-05 17:13 | 39.73412 | 3.20259 | 21328 ft | 433 kts | 46° |
| 2026-05-05 17:13 | 39.75381 | 3.23198 | 21837 ft | 438 kts | 46° |
| 2026-05-05 17:13 | 39.77402 | 3.26215 | 22300 ft | 443 kts | 46° |
| 2026-05-05 17:13 | 39.79408 | 3.29216 | 22814 ft | 446 kts | 46° |
| 2026-05-05 17:14 | 39.81446 | 3.32269 | 23296 ft | 451 kts | 46° |
| 2026-05-05 17:14 | 39.83509 | 3.35361 | 23766 ft | 455 kts | 46° |
| 2026-05-05 17:14 | 39.85574 | 3.38457 | 24233 ft | 458 kts | 46° |
| 2026-05-05 17:14 | 39.87655 | 3.41580 | 24688 ft | 462 kts | 47° |
| 2026-05-05 17:15 | 39.89769 | 3.44756 | 25138 ft | 466 kts | 47° |
| 2026-05-05 17:15 | 39.91904 | 3.47967 | 25579 ft | 469 kts | 47° |
| 2026-05-05 17:15 | 39.94018 | 3.51151 | 26004 ft | 473 kts | 47° |
| 2026-05-05 17:15 | 39.96189 | 3.54424 | 26427 ft | 476 kts | 47° |
| 2026-05-05 17:16 | 39.98333 | 3.57660 | 26834 ft | 480 kts | 47° |
| 2026-05-05 17:16 | 40.00518 | 3.60963 | 27238 ft | 483 kts | 47° |
| 2026-05-05 17:16 | 40.02732 | 3.64311 | 27636 ft | 486 kts | 47° |
| 2026-05-05 17:16 | 40.04937 | 3.67645 | 28004 ft | 490 kts | 48° |
| 2026-05-05 17:17 | 40.07155 | 3.70999 | 28373 ft | 493 kts | 48° |
| 2026-05-05 17:17 | 40.09378 | 3.74366 | 28731 ft | 496 kts | 48° |
| 2026-05-05 17:17 | 40.11631 | 3.77786 | 29168 ft | 496 kts | 48° |
| 2026-05-05 17:17 | 40.13869 | 3.81188 | 29460 ft | 500 kts | 48° |
| 2026-05-05 17:18 | 40.16139 | 3.84641 | 29788 ft | 503 kts | 48° |
| 2026-05-05 17:18 | 40.18425 | 3.88124 | 30110 ft | 505 kts | 48° |
| 2026-05-05 17:18 | 40.20697 | 3.91592 | 30438 ft | 508 kts | 48° |
| 2026-05-05 17:18 | 40.23002 | 3.95113 | 30763 ft | 510 kts | 48° |
| 2026-05-05 17:19 | 40.25294 | 3.98620 | 31082 ft | 512 kts | 49° |
| 2026-05-05 17:19 | 40.27616 | 4.02169 | 31278 ft | 517 kts | 49° |
| 2026-05-05 17:19 | 40.29963 | 4.05768 | 31595 ft | 519 kts | 49° |
| 2026-05-05 17:19 | 40.32300 | 4.09357 | 31894 ft | 521 kts | 49° |
| 2026-05-05 17:20 | 40.34637 | 4.12950 | 32266 ft | 522 kts | 49° |
| 2026-05-05 17:20 | 40.36968 | 4.16540 | 32659 ft | 521 kts | 49° |
| 2026-05-05 17:20 | 40.39305 | 4.20141 | 33051 ft | 520 kts | 49° |
| 2026-05-05 17:20 | 40.41650 | 4.23758 | 33443 ft | 520 kts | 49° |
| 2026-05-05 17:21 | 40.43987 | 4.27370 | 33904 ft | 517 kts | 48° |
| 2026-05-05 17:21 | 40.46429 | 4.30772 | 34243 ft | 514 kts | 38° |
| 2026-05-05 17:21 | 40.49326 | 4.33415 | 34618 ft | 507 kts | 25° |
| 2026-05-05 17:22 | 40.55528 | 4.37581 | 35288 ft | 499 kts | 14° |
| 2026-05-05 17:22 | 40.58826 | 4.38798 | 35637 ft | 490 kts | 5° |
| 2026-05-05 17:22 | 40.62135 | 4.39637 | 35983 ft | 487 kts | 3° |
| 2026-05-05 17:22 | 40.65469 | 4.40421 | 36289 ft | 487 kts | 3° |
| 2026-05-05 17:23 | 40.68784 | 4.41201 | 36587 ft | 487 kts | 3° |
| 2026-05-05 17:23 | 40.72089 | 4.41982 | 36879 ft | 486 kts | 3° |
| 2026-05-05 17:23 | 40.75412 | 4.42772 | 37162 ft | 487 kts | 3° |
| 2026-05-05 17:23 | 40.78710 | 4.43564 | 37412 ft | 487 kts | 2° |
| 2026-05-05 17:24 | 40.82058 | 4.44366 | 37664 ft | 487 kts | 2° |
| 2026-05-05 17:24 | 40.85379 | 4.45161 | 37891 ft | 488 kts | 2° |
| 2026-05-05 17:24 | 40.88674 | 4.45951 | 37918 ft | 490 kts | 2° |
| 2026-05-05 17:25 | 40.95330 | 4.47559 | 37911 ft | 485 kts | 2° |
| 2026-05-05 17:25 | 41.01953 | 4.49167 | 37912 ft | 483 kts | 2° |
| 2026-05-05 17:26 | 41.08540 | 4.50765 | 37913 ft | 485 kts | 2° |
| 2026-05-05 17:26 | 41.15167 | 4.52377 | 37913 ft | 485 kts | 2° |
| 2026-05-05 17:27 | 41.21747 | 4.53982 | 37913 ft | 485 kts | 2° |
| 2026-05-05 17:27 | 41.28389 | 4.55605 | 37908 ft | 484 kts | 2° |
| 2026-05-05 17:28 | 41.34925 | 4.57208 | 37913 ft | 481 kts | 2° |
| 2026-05-05 17:28 | 41.41505 | 4.58822 | 37885 ft | 482 kts | 2° |
| 2026-05-05 17:29 | 41.48076 | 4.60438 | 37886 ft | 483 kts | 2° |
| 2026-05-05 17:29 | 41.54652 | 4.62059 | 37886 ft | 483 kts | 2° |
| 2026-05-05 17:30 | 41.61230 | 4.63684 | 37915 ft | 483 kts | 2° |
| 2026-05-05 17:30 | 41.67830 | 4.65319 | 37912 ft | 483 kts | 4° |
| 2026-05-05 17:31 | 41.74352 | 4.67621 | 37913 ft | 493 kts | 14° |
| 2026-05-05 17:31 | 41.80674 | 4.71018 | 37911 ft | 491 kts | 17° |
| 2026-05-05 17:32 | 41.86924 | 4.74547 | 37913 ft | 489 kts | 17° |
| 2026-05-05 17:32 | 41.93179 | 4.78121 | 37914 ft | 493 kts | 17° |
| 2026-05-05 17:33 | 41.99477 | 4.81741 | 37913 ft | 495 kts | 17° |
| 2026-05-05 17:33 | 42.05769 | 4.85377 | 37913 ft | 493 kts | 18° |
| 2026-05-05 17:34 | 42.12029 | 4.89007 | 37940 ft | 492 kts | 18° |
| 2026-05-05 17:34 | 42.18291 | 4.92646 | 37917 ft | 494 kts | 18° |
| 2026-05-05 17:35 | 42.24591 | 4.96318 | 37926 ft | 493 kts | 18° |
| 2026-05-05 17:35 | 42.30823 | 4.99951 | 37910 ft | 490 kts | 18° |
| 2026-05-05 17:36 | 42.37054 | 5.03604 | 37913 ft | 488 kts | 18° |
| 2026-05-05 17:36 | 42.43185 | 5.07553 | 37940 ft | 493 kts | 24° |
| 2026-05-05 17:37 | 42.49164 | 5.12005 | 37911 ft | 495 kts | 24° |
| 2026-05-05 17:37 | 42.55166 | 5.16522 | 37924 ft | 494 kts | 24° |
| 2026-05-05 17:38 | 42.61137 | 5.21029 | 37911 ft | 494 kts | 24° |
| 2026-05-05 17:38 | 42.67115 | 5.25553 | 37913 ft | 494 kts | 24° |
| 2026-05-05 17:39 | 42.73096 | 5.30092 | 37940 ft | 493 kts | 24° |
| 2026-05-05 17:39 | 42.79065 | 5.34622 | 37911 ft | 492 kts | 25° |
| 2026-05-05 17:40 | 42.84954 | 5.39113 | 37942 ft | 488 kts | 25° |
| 2026-05-05 17:40 | 42.90861 | 5.43625 | 37912 ft | 490 kts | 25° |
| 2026-05-05 17:41 | 42.96790 | 5.48165 | 37941 ft | 490 kts | 25° |
| 2026-05-05 17:41 | 43.02704 | 5.52703 | 37940 ft | 490 kts | 25° |
| 2026-05-05 17:42 | 43.08488 | 5.57565 | 37938 ft | 493 kts | 32° |
| 2026-05-05 17:42 | 43.13562 | 5.63892 | 37943 ft | 498 kts | 45° |
| 2026-05-05 17:43 | 43.18161 | 5.70923 | 37940 ft | 498 kts | 47° |
| 2026-05-05 17:43 | 43.22778 | 5.78041 | 37940 ft | 499 kts | 46° |
| 2026-05-05 17:44 | 43.27372 | 5.85132 | 37941 ft | 498 kts | 47° |
| 2026-05-05 17:44 | 43.31911 | 5.92166 | 37938 ft | 490 kts | 47° |
| 2026-05-05 17:45 | 43.36573 | 5.98865 | 37930 ft | 489 kts | 38° |
| 2026-05-05 17:45 | 43.39307 | 6.01609 | 37909 ft | 486 kts | 26° |
| 2026-05-05 17:45 | 43.42377 | 6.03463 | 37916 ft | 478 kts | 12° |
| 2026-05-05 17:46 | 43.48800 | 6.05024 | 37915 ft | 469 kts | 358° |
| 2026-05-05 17:46 | 43.55256 | 6.05673 | 37913 ft | 467 kts | 358° |
| 2026-05-05 17:47 | 43.61734 | 6.06310 | 37913 ft | 467 kts | 358° |
| 2026-05-05 17:47 | 43.68182 | 6.06952 | 37913 ft | 467 kts | 358° |
| 2026-05-05 17:48 | 43.74609 | 6.07810 | 37912 ft | 472 kts | 4° |
| 2026-05-05 17:48 | 43.80967 | 6.10438 | 37917 ft | 486 kts | 21° |
| 2026-05-05 17:49 | 43.87049 | 6.14534 | 37912 ft | 490 kts | 22° |
| 2026-05-05 17:49 | 43.93138 | 6.18715 | 37912 ft | 487 kts | 22° |
| 2026-05-05 17:50 | 43.99172 | 6.22856 | 37913 ft | 486 kts | 22° |
| 2026-05-05 17:50 | 44.05214 | 6.27012 | 37913 ft | 488 kts | 22° |
| 2026-05-05 17:51 | 44.11259 | 6.31170 | 37941 ft | 489 kts | 22° |
| 2026-05-05 17:51 | 44.17352 | 6.35365 | 37940 ft | 489 kts | 22° |
| 2026-05-05 17:52 | 44.23416 | 6.39550 | 37940 ft | 488 kts | 22° |
| 2026-05-05 17:52 | 44.29489 | 6.43735 | 37940 ft | 489 kts | 23° |
| 2026-05-05 17:53 | 44.35562 | 6.47947 | 37940 ft | 490 kts | 23° |
| 2026-05-05 17:53 | 44.41657 | 6.52188 | 37967 ft | 490 kts | 23° |
| 2026-05-05 17:54 | 44.47736 | 6.56426 | 37967 ft | 490 kts | 23° |
| 2026-05-05 17:54 | 44.53794 | 6.60656 | 37967 ft | 490 kts | 23° |
| 2026-05-05 17:55 | 44.59861 | 6.64902 | 37967 ft | 490 kts | 23° |
| 2026-05-05 17:55 | 44.65917 | 6.69139 | 37967 ft | 490 kts | 24° |
| 2026-05-05 17:56 | 44.72009 | 6.73412 | 37967 ft | 490 kts | 24° |
| 2026-05-05 17:56 | 44.78098 | 6.77249 | 37966 ft | 484 kts | 15° |
| 2026-05-05 17:57 | 44.83953 | 6.78763 | 37969 ft | 471 kts | 355° |
| 2026-05-05 17:57 | 44.90321 | 6.78438 | 37966 ft | 470 kts | 352° |
| 2026-05-05 17:58 | 44.96872 | 6.77972 | 37967 ft | 471 kts | 352° |
| 2026-05-05 17:58 | 45.03373 | 6.77524 | 37967 ft | 471 kts | 352° |
| 2026-05-05 17:59 | 45.09898 | 6.77082 | 37967 ft | 470 kts | 352° |
| 2026-05-05 17:59 | 45.16431 | 6.76643 | 37967 ft | 470 kts | 352° |
| 2026-05-05 18:00 | 45.22896 | 6.76210 | 37967 ft | 471 kts | 352° |
| 2026-05-05 18:00 | 45.29422 | 6.75766 | 37938 ft | 468 kts | 353° |
| 2026-05-05 18:01 | 45.35873 | 6.75337 | 37940 ft | 464 kts | 353° |
| 2026-05-05 18:01 | 45.42296 | 6.74908 | 37941 ft | 466 kts | 353° |
| 2026-05-05 18:02 | 45.48748 | 6.74471 | 37940 ft | 465 kts | 353° |
| 2026-05-05 18:02 | 45.55188 | 6.74034 | 37940 ft | 464 kts | 353° |
| 2026-05-05 18:03 | 45.61608 | 6.73595 | 37940 ft | 465 kts | 353° |
| 2026-05-05 18:03 | 45.68014 | 6.73155 | 37940 ft | 465 kts | 353° |
| 2026-05-05 18:04 | 45.74477 | 6.72711 | 37940 ft | 465 kts | 353° |
| 2026-05-05 18:04 | 45.80888 | 6.72258 | 37891 ft | 464 kts | 356° |
| 2026-05-05 18:04 | 45.84093 | 6.72019 | 37873 ft | 459 kts | 345° |
| 2026-05-05 18:05 | 45.87036 | 6.70621 | 37914 ft | 449 kts | 337° |
| 2026-05-05 18:05 | 45.93077 | 6.68316 | 37885 ft | 460 kts | 355° |
| 2026-05-05 18:06 | 45.99505 | 6.69143 | 37882 ft | 471 kts | 4° |
| 2026-05-05 18:06 | 46.05968 | 6.70335 | 37885 ft | 466 kts | 0° |
| 2026-05-05 18:07 | 46.12279 | 6.69673 | 37915 ft | 455 kts | 343° |
| 2026-05-05 18:07 | 46.18332 | 6.67127 | 37914 ft | 454 kts | 338° |
| 2026-05-05 18:08 | 46.24327 | 6.64314 | 37912 ft | 455 kts | 338° |
| 2026-05-05 18:08 | 46.30308 | 6.61454 | 37913 ft | 456 kts | 338° |
| 2026-05-05 18:09 | 46.36283 | 6.58569 | 37913 ft | 456 kts | 338° |
| 2026-05-05 18:09 | 46.42288 | 6.55649 | 37913 ft | 456 kts | 338° |
| 2026-05-05 18:10 | 46.48268 | 6.52727 | 37884 ft | 456 kts | 338° |
| 2026-05-05 18:10 | 46.54250 | 6.49793 | 37886 ft | 455 kts | 338° |
| 2026-05-05 18:11 | 46.60211 | 6.46859 | 37886 ft | 456 kts | 338° |
| 2026-05-05 18:11 | 46.66210 | 6.43899 | 37886 ft | 456 kts | 338° |
| 2026-05-05 18:12 | 46.72183 | 6.40944 | 37886 ft | 456 kts | 338° |
| 2026-05-05 18:12 | 46.78180 | 6.37958 | 37886 ft | 456 kts | 338° |
| 2026-05-05 18:13 | 46.84123 | 6.34999 | 37886 ft | 456 kts | 338° |
| 2026-05-05 18:13 | 46.90122 | 6.32020 | 37915 ft | 455 kts | 338° |
| 2026-05-05 18:14 | 46.96115 | 6.29033 | 37913 ft | 456 kts | 338° |
| 2026-05-05 18:14 | 47.02055 | 6.26062 | 37913 ft | 455 kts | 338° |
| 2026-05-05 18:15 | 47.07951 | 6.22738 | 37913 ft | 452 kts | 331° |
| 2026-05-05 18:15 | 47.13562 | 6.18731 | 37913 ft | 450 kts | 330° |
| 2026-05-05 18:16 | 47.19163 | 6.14681 | 37913 ft | 451 kts | 330° |
| 2026-05-05 18:16 | 47.24778 | 6.10612 | 37856 ft | 452 kts | 330° |
| 2026-05-05 18:17 | 47.30383 | 6.06547 | 37859 ft | 452 kts | 332° |
| 2026-05-05 18:17 | 47.36383 | 6.03666 | 37857 ft | 459 kts | 349° |
| 2026-05-05 18:18 | 47.42766 | 6.03360 | 37860 ft | 463 kts | 359° |
| 2026-05-05 18:18 | 47.49184 | 6.03535 | 37858 ft | 462 kts | 359° |
| 2026-05-05 18:19 | 47.55559 | 6.03698 | 37859 ft | 462 kts | 359° |
| 2026-05-05 18:19 | 47.61958 | 6.03854 | 37859 ft | 462 kts | 359° |
| 2026-05-05 18:20 | 47.68361 | 6.04004 | 37859 ft | 462 kts | 359° |
| 2026-05-05 18:20 | 47.74772 | 6.04826 | 37858 ft | 464 kts | 9° |
| 2026-05-05 18:21 | 47.81010 | 6.06908 | 37858 ft | 463 kts | 13° |
| 2026-05-05 18:21 | 47.87227 | 6.09172 | 37859 ft | 462 kts | 13° |
| 2026-05-05 18:22 | 47.93467 | 6.11486 | 37859 ft | 463 kts | 13° |
| 2026-05-05 18:22 | 47.99694 | 6.13818 | 37859 ft | 463 kts | 13° |
| 2026-05-05 18:23 | 48.05912 | 6.16161 | 37858 ft | 463 kts | 13° |
| 2026-05-05 18:23 | 48.12149 | 6.18522 | 37831 ft | 463 kts | 13° |
| 2026-05-05 18:24 | 48.18335 | 6.20873 | 37832 ft | 462 kts | 13° |
| 2026-05-05 18:24 | 48.24543 | 6.23240 | 37832 ft | 463 kts | 13° |
| 2026-05-05 18:25 | 48.30757 | 6.25605 | 37830 ft | 461 kts | 14° |
| 2026-05-05 18:25 | 48.36978 | 6.27991 | 37833 ft | 463 kts | 14° |
| 2026-05-05 18:26 | 48.43198 | 6.30385 | 37832 ft | 464 kts | 14° |
| 2026-05-05 18:26 | 48.49415 | 6.32782 | 37832 ft | 464 kts | 14° |
| 2026-05-05 18:27 | 48.55664 | 6.35197 | 37832 ft | 463 kts | 14° |
| 2026-05-05 18:27 | 48.61846 | 6.37587 | 37832 ft | 463 kts | 13° |
| 2026-05-05 18:28 | 48.71377 | 6.39499 | 37832 ft | 463 kts | 4° |
| 2026-05-05 18:28 | 48.77768 | 6.40244 | 37832 ft | 463 kts | 3° |
| 2026-05-05 18:29 | 48.84174 | 6.40935 | 37832 ft | 462 kts | 3° |
| 2026-05-05 18:29 | 48.90570 | 6.41613 | 37832 ft | 462 kts | 3° |
| 2026-05-05 18:30 | 48.96968 | 6.42280 | 37832 ft | 462 kts | 3° |
| 2026-05-05 18:30 | 49.03348 | 6.42940 | 37832 ft | 462 kts | 3° |
| 2026-05-05 18:31 | 49.09733 | 6.43281 | 37832 ft | 462 kts | 357° |
| 2026-05-05 18:31 | 49.16046 | 6.41848 | 37834 ft | 460 kts | 344° |
| 2026-05-05 18:32 | 49.22183 | 6.39358 | 37832 ft | 460 kts | 343° |
| 2026-05-05 18:32 | 49.28365 | 6.36805 | 37832 ft | 460 kts | 343° |
| 2026-05-05 18:33 | 49.34479 | 6.34281 | 37763 ft | 454 kts | 343° |
| 2026-05-05 18:33 | 49.37499 | 6.33033 | 37560 ft | 446 kts | 343° |
| 2026-05-05 18:33 | 49.40488 | 6.31794 | 37209 ft | 451 kts | 343° |
| 2026-05-05 18:34 | 49.43504 | 6.30532 | 36611 ft | 458 kts | 343° |
| 2026-05-05 18:34 | 49.46565 | 6.29196 | 36011 ft | 456 kts | 343° |
| 2026-05-05 18:34 | 49.49596 | 6.27812 | 35411 ft | 455 kts | 342° |
| 2026-05-05 18:34 | 49.52602 | 6.26409 | 34845 ft | 453 kts | 343° |
| 2026-05-05 18:35 | 49.55603 | 6.25011 | 34239 ft | 456 kts | 343° |
| 2026-05-05 18:35 | 49.58636 | 6.23620 | 33563 ft | 458 kts | 344° |
| 2026-05-05 18:35 | 49.61669 | 6.22277 | 32894 ft | 457 kts | 345° |
| 2026-05-05 18:35 | 49.64690 | 6.20971 | 32220 ft | 456 kts | 345° |
| 2026-05-05 18:36 | 49.67730 | 6.19688 | 31522 ft | 455 kts | 346° |
| 2026-05-05 18:36 | 49.70781 | 6.18431 | 30782 ft | 455 kts | 346° |
| 2026-05-05 18:36 | 49.73811 | 6.17212 | 30106 ft | 452 kts | 347° |
| 2026-05-05 18:36 | 49.76859 | 6.16016 | 29601 ft | 446 kts | 347° |
| 2026-05-05 18:37 | 49.79825 | 6.14885 | 29026 ft | 442 kts | 348° |
| 2026-05-05 18:37 | 49.82786 | 6.13841 | 28441 ft | 438 kts | 352° |
| 2026-05-05 18:37 | 49.85766 | 6.13430 | 27864 ft | 432 kts | 0° |
| 2026-05-05 18:37 | 49.88778 | 6.13323 | 27292 ft | 428 kts | 1° |
| 2026-05-05 18:38 | 49.91723 | 6.13287 | 26725 ft | 424 kts | 1° |
| 2026-05-05 18:38 | 49.94649 | 6.13294 | 26162 ft | 421 kts | 2° |
| 2026-05-05 18:38 | 49.97523 | 6.13316 | 25612 ft | 418 kts | 2° |
| 2026-05-05 18:38 | 50.00396 | 6.13333 | 25062 ft | 414 kts | 1° |
| 2026-05-05 18:39 | 50.03252 | 6.13335 | 24512 ft | 411 kts | 1° |
| 2026-05-05 18:39 | 50.06102 | 6.13312 | 24150 ft | 409 kts | 0° |
| 2026-05-05 18:39 | 50.08941 | 6.13271 | 23910 ft | 413 kts | 0° |
| 2026-05-05 18:39 | 50.11788 | 6.13237 | 23465 ft | 410 kts | 0° |
| 2026-05-05 18:40 | 50.14619 | 6.13220 | 22894 ft | 406 kts | 0° |
| 2026-05-05 18:40 | 50.17439 | 6.13214 | 22351 ft | 402 kts | 0° |
| 2026-05-05 18:40 | 50.20202 | 6.13216 | 21793 ft | 399 kts | 0° |
| 2026-05-05 18:40 | 50.22951 | 6.13223 | 21245 ft | 396 kts | 0° |
| 2026-05-05 18:41 | 50.25688 | 6.13262 | 20700 ft | 392 kts | 2° |
| 2026-05-05 18:41 | 50.28363 | 6.13661 | 20285 ft | 385 kts | 9° |
| 2026-05-05 18:41 | 50.30908 | 6.14754 | 19660 ft | 384 kts | 21° |
| 2026-05-05 18:41 | 50.33389 | 6.16359 | 18541 ft | 396 kts | 24° |
| 2026-05-05 18:42 | 50.35886 | 6.18069 | 17812 ft | 395 kts | 24° |
| 2026-05-05 18:42 | 50.38394 | 6.19752 | 17123 ft | 393 kts | 23° |
| 2026-05-05 18:42 | 50.40915 | 6.21397 | 16495 ft | 388 kts | 23° |
| 2026-05-05 18:42 | 50.43366 | 6.22969 | 15868 ft | 385 kts | 23° |
| 2026-05-05 18:43 | 50.45838 | 6.24557 | 15226 ft | 381 kts | 23° |
| 2026-05-05 18:43 | 50.48249 | 6.26116 | 14635 ft | 377 kts | 23° |
| 2026-05-05 18:43 | 50.50654 | 6.27679 | 14130 ft | 370 kts | 23° |
| 2026-05-05 18:43 | 50.52992 | 6.29200 | 13823 ft | 359 kts | 23° |
| 2026-05-05 18:44 | 50.55262 | 6.30678 | 13575 ft | 347 kts | 23° |
| 2026-05-05 18:44 | 50.57435 | 6.32095 | 13328 ft | 337 kts | 23° |
| 2026-05-05 18:44 | 50.59576 | 6.33495 | 13104 ft | 327 kts | 23° |
| 2026-05-05 18:44 | 50.61643 | 6.34847 | 13071 ft | 311 kts | 23° |
| 2026-05-05 18:45 | 50.63590 | 6.36122 | 13073 ft | 296 kts | 23° |
| 2026-05-05 18:45 | 50.65415 | 6.37318 | 13073 ft | 282 kts | 23° |
| 2026-05-05 18:45 | 50.67211 | 6.38497 | 13026 ft | 271 kts | 23° |
| 2026-05-05 18:45 | 50.68910 | 6.39614 | 12957 ft | 261 kts | 23° |
| 2026-05-05 18:46 | 50.70566 | 6.40704 | 12891 ft | 257 kts | 23° |
| 2026-05-05 18:46 | 50.72212 | 6.41788 | 12838 ft | 258 kts | 23° |
| 2026-05-05 18:46 | 50.73867 | 6.42879 | 12700 ft | 262 kts | 23° |
| 2026-05-05 18:46 | 50.75562 | 6.43998 | 12280 ft | 267 kts | 23° |
| 2026-05-05 18:47 | 50.77314 | 6.45155 | 11599 ft | 283 kts | 23° |
| 2026-05-05 18:47 | 50.79136 | 6.46360 | 11032 ft | 291 kts | 22° |
| 2026-05-05 18:47 | 50.81018 | 6.47614 | 10620 ft | 291 kts | 22° |
| 2026-05-05 18:47 | 50.82864 | 6.48862 | 10366 ft | 286 kts | 22° |
| 2026-05-05 18:48 | 50.84671 | 6.50090 | 10112 ft | 282 kts | 22° |
| 2026-05-05 18:48 | 50.86514 | 6.50982 | 9723 ft | 283 kts | 5° |
| 2026-05-05 18:48 | 50.88498 | 6.50898 | 9151 ft | 288 kts | 352° |
| 2026-05-05 18:48 | 50.90480 | 6.50502 | 8755 ft | 288 kts | 352° |
| 2026-05-05 18:49 | 50.92432 | 6.50099 | 8395 ft | 285 kts | 352° |
| 2026-05-05 18:49 | 50.94377 | 6.49703 | 8111 ft | 280 kts | 352° |
| 2026-05-05 18:49 | 50.96285 | 6.49306 | 7807 ft | 275 kts | 352° |
| 2026-05-05 18:49 | 50.98161 | 6.48903 | 7551 ft | 269 kts | 352° |
| 2026-05-05 18:50 | 50.99995 | 6.48500 | 7296 ft | 264 kts | 351° |
| 2026-05-05 18:50 | 51.01793 | 6.48258 | 7032 ft | 255 kts | 4° |
| 2026-05-05 18:50 | 51.03505 | 6.48706 | 6708 ft | 245 kts | 11° |
| 2026-05-05 18:50 | 51.05159 | 6.49257 | 6200 ft | 243 kts | 12° |
| 2026-05-05 18:51 | 51.06798 | 6.49794 | 5697 ft | 240 kts | 12° |
| 2026-05-05 18:51 | 51.08414 | 6.50314 | 5256 ft | 236 kts | 12° |
| 2026-05-05 18:51 | 51.09992 | 6.50814 | 4818 ft | 232 kts | 12° |
| 2026-05-05 18:51 | 51.11542 | 6.51299 | 4549 ft | 222 kts | 12° |
| 2026-05-05 18:52 | 51.13032 | 6.51768 | 4290 ft | 212 kts | 12° |
| 2026-05-05 18:52 | 51.14433 | 6.52211 | 4044 ft | 205 kts | 12° |
| 2026-05-05 18:52 | 51.15790 | 6.52693 | 3904 ft | 196 kts | 18° |
| 2026-05-05 18:52 | 51.17053 | 6.53444 | 3675 ft | 193 kts | 25° |
| 2026-05-05 18:53 | 51.18120 | 6.54704 | 3461 ft | 185 kts | 47° |
| 2026-05-05 18:53 | 51.18912 | 6.56279 | 3172 ft | 181 kts | 51° |
| 2026-05-05 18:53 | 51.19659 | 6.57838 | 2923 ft | 175 kts | 51° |
| 2026-05-05 18:53 | 51.20389 | 6.59361 | 2678 ft | 170 kts | 51° |
| 2026-05-05 18:54 | 51.21086 | 6.60815 | 2454 ft | 161 kts | 51° |
| 2026-05-05 18:54 | 51.21740 | 6.62178 | 2274 ft | 150 kts | 51° |
| 2026-05-05 18:54 | 51.22358 | 6.63468 | 2062 ft | 146 kts | 50° |
| 2026-05-05 18:54 | 51.22976 | 6.64760 | 1845 ft | 146 kts | 50° |
| 2026-05-05 18:55 | 51.23589 | 6.66049 | 1645 ft | 146 kts | 51° |
| 2026-05-05 18:55 | 51.24203 | 6.67333 | 1447 ft | 146 kts | 51° |
| 2026-05-05 18:55 | 51.24820 | 6.68623 | 1234 ft | 147 kts | 51° |
| 2026-05-05 18:55 | 51.25431 | 6.69901 | 1051 ft | 144 kts | 51° |
| 2026-05-05 18:56 | 51.26032 | 6.71159 | 864 ft | 143 kts | 51° |
| 2026-05-05 18:56 | 51.26632 | 6.72416 | 673 ft | 142 kts | 51° |
| 2026-05-05 18:56 | 51.27237 | 6.73682 | 481 ft | 143 kts | 51° |
| 2026-05-05 18:56 | 51.27838 | 6.74942 | 292 ft | 142 kts | 51° |
| 2026-05-05 18:57 | 51.28422 | 6.76158 | 155 ft | 123 kts | 51° |
| 2026-05-05 18:57 | 51.28803 | 6.76964 | 154 ft | 71 kts | 52° |
| 2026-05-05 18:57 | 51.29002 | 6.77393 | 154 ft | 23 kts | 62° |
| 2026-05-05 18:57 | 51.29002 | 6.77559 | 154 ft | 12 kts | 129° |
| 2026-05-05 18:58 | 51.28963 | 6.77615 | 154 ft | 0 kts | 145° |
| 2026-05-05 18:58 | 51.28962 | 6.77616 | 154 ft | 1 kts | 145° |
| 2026-05-05 18:59 | 51.28932 | 6.77643 | 154 ft | 5 kts | 173° |
| 2026-05-05 18:59 | 51.28896 | 6.77621 | 154 ft | 5 kts | 217° |
| 2026-05-05 18:59 | 51.28862 | 6.77559 | 154 ft | 9 kts | 233° |
| 2026-05-05 18:59 | 51.28828 | 6.77486 | 154 ft | 7 kts | 233° |
| 2026-05-05 19:00 | 51.28789 | 6.77404 | 154 ft | 12 kts | 233° |
| 2026-05-05 19:00 | 51.28735 | 6.77290 | 154 ft | 12 kts | 233° |
| 2026-05-05 19:00 | 51.28688 | 6.77191 | 154 ft | 10 kts | 233° |
| 2026-05-05 19:00 | 51.28645 | 6.77098 | 154 ft | 11 kts | 233° |
| 2026-05-05 19:01 | 51.28574 | 6.76952 | 154 ft | 23 kts | 232° |
| 2026-05-05 19:01 | 51.28473 | 6.76739 | 154 ft | 22 kts | 233° |
| 2026-05-05 19:01 | 51.28379 | 6.76538 | 154 ft | 22 kts | 233° |
| 2026-05-05 19:01 | 51.28290 | 6.76354 | 154 ft | 19 kts | 232° |
| 2026-05-05 19:02 | 51.28213 | 6.76194 | 154 ft | 16 kts | 232° |
| 2026-05-05 19:02 | 51.28152 | 6.76066 | 154 ft | 12 kts | 230° |
| 2026-05-05 19:02 | 51.28096 | 6.76037 | 154 ft | 7 kts | 165° |
| 2026-05-05 19:02 | 51.28049 | 6.76049 | 154 ft | 6 kts | 179° |
| 2026-05-05 19:03 | 51.27992 | 6.76048 | 154 ft | 10 kts | 180° |
| 2026-05-05 19:03 | 51.27924 | 6.76048 | 154 ft | 8 kts | 180° |
| 2026-05-05 19:03 | 51.27869 | 6.76055 | 154 ft | 7 kts | 160° |
| 2026-05-05 19:03 | 51.27852 | 6.76106 | 154 ft | 4 kts | 69° |
| 2026-05-05 19:04 | 51.27877 | 6.76158 | 154 ft | 6 kts | 59° |
| 2026-05-05 19:04 | 51.27896 | 6.76212 | 154 ft | 4 kts | 60° |
| 2026-05-05 19:04 | 51.27907 | 6.76243 | 154 ft | 0 kts | 60° |
| 2026-05-05 19:04 | 51.27909 | 6.76250 | 154 ft | 1 kts | 60° |
| 2026-05-05 19:05 | 51.27910 | 6.76253 | 154 ft | 0 kts | 60° |